Time;durP1;ratioP1;P1;durP2;ratioP2;P2;SDS_P1;SDS_P2;PMS_P1;PMS_P2;Temp;Humidity;BMP_temperature;BMP_pressure;BME280_temperature;BME280_humidity;BME280_pressure;Samples;Min_cycle;Max_cycle;Signal;HPM_P1;HPM_P2
2022/10/04 00:01:18;;;;;;;5.90;2.03;;;;;;;;;;4993553;28;20128;-69
2022/10/04 00:03:47;;;;;;;8.65;2.33;;;;;;;;;;5008370;28;20041;-68
2022/10/04 00:06:16;;;;;;;7.13;2.30;;;;;;;;;;4993374;28;20037;-68
2022/10/04 00:08:48;;;;;;;8.05;2.45;;;;;;;;;;5007647;28;22078;-67
2022/10/04 00:11:15;;;;;;;9.80;2.08;;;;;;;;;;4993758;28;20402;-69
2022/10/04 00:13:46;;;;;;;4.57;1.80;;;;;;;;;;5006361;28;20505;-68
2022/10/04 00:16:21;;;;;;;5.38;1.90;;;;;;;;;;5002784;28;20172;-67
2022/10/04 00:18:47;;;;;;;5.85;2.20;;;;;;;;;;5005662;28;20054;-68
2022/10/04 00:21:14;;;;;;;5.43;2.00;;;;;;;;;;5007802;28;20044;-68
2022/10/04 00:23:42;;;;;;;6.35;2.10;;;;;;;;;;5008593;28;20056;-69
2022/10/04 00:26:15;;;;;;;7.28;2.15;;;;;;;;;;5007633;28;20148;-68
2022/10/04 00:28:41;;;;;;;;;;;;;;;;;;5006053;28;20061;-68
2022/10/04 00:31:08;;;;;;;5.00;1.98;;;;;;;;;;5005545;28;19917;-68
2022/10/04 00:33:45;;;;;;;7.20;2.08;;;;;;;;;;5004760;28;20098;-68
2022/10/04 00:36:24;;;;;;;6.35;2.00;;;;;;;;;;5006157;28;20045;-68
2022/10/04 00:39:09;;;;;;;5.45;2.08;;;;;;;;;;5004503;28;20056;-69
2022/10/04 00:41:59;;;;;;;6.97;2.08;;;;;;;;;;5005911;28;20479;-64
2022/10/04 00:44:44;;;;;;;14.48;5.13;;;;;;;;;;4992734;28;20042;-68
2022/10/04 00:47:23;;;;;;;13.10;5.05;;;;;;;;;;5000932;28;20049;-68
2022/10/04 00:49:53;;;;;;;14.40;2.83;;;;;;;;;;5003014;28;20033;-68
2022/10/04 00:52:21;;;;;;;11.93;3.10;;;;;;;;;;5005175;28;20030;-71
2022/10/04 00:54:52;;;;;;;15.43;3.20;;;;;;;;;;5005857;28;20038;-69
2022/10/04 00:57:37;;;;;;;18.75;3.40;;;;;;;;;;5008803;28;20064;-68
2022/10/04 01:00:06;;;;;;;16.67;3.28;;;;;;;;;;5009331;28;20103;-68
2022/10/04 01:02:46;;;;;;;22.95;3.35;;;;;;;;;;5007703;28;20033;-67
2022/10/04 01:05:16;;;;;;;18.33;4.03;;;;;;;;;;5011220;28;20484;-66
2022/10/04 01:07:53;;;;;;;23.58;5.18;;;;;;;;;;5007192;28;21779;-68
2022/10/04 01:10:28;;;;;;;17.10;3.20;;;;;;;;;;5008937;28;20069;-67
2022/10/04 01:13:09;;;;;;;11.98;3.10;;;;;;;;;;5008666;28;20037;-67
2022/10/04 01:15:55;;;;;;;15.93;2.95;;;;;;;;;;5006892;28;20506;-68
2022/10/04 01:18:21;;;;;;;16.08;2.92;;;;;;;;;;5006975;28;20097;-69
2022/10/04 01:21:19;;;;;;;11.95;3.38;;;;;;;;;;4996205;28;20440;-66
2022/10/04 01:23:58;;;;;;;17.38;4.28;;;;;;;;;;4997495;28;20045;-68
2022/10/04 01:26:24;;;;;;;16.13;4.05;;;;;;;;;;4991097;28;20053;-66
2022/10/04 01:28:51;;;;;;;21.63;3.15;;;;;;;;;;4993352;28;20038;-68
2022/10/04 01:31:18;;;;;;;19.02;7.10;;;;;;;;;;4993582;28;20042;-67
2022/10/04 01:33:45;;;;;;;21.17;4.35;;;;;;;;;;4995715;28;20060;-67
2022/10/04 01:36:11;;;;;;;18.50;3.65;;;;;;;;;;5003187;28;20119;-66
2022/10/04 01:38:38;;;;;;;22.75;3.30;;;;;;;;;;4992357;28;20085;-66
2022/10/04 01:41:05;;;;;;;21.27;4.03;;;;;;;;;;4987417;28;20049;-65
2022/10/04 01:43:36;;;;;;;19.52;3.83;;;;;;;;;;5004125;28;20129;-65
2022/10/04 01:46:10;;;;;;;10.82;3.25;;;;;;;;;;4993526;28;20041;-68
2022/10/04 01:48:37;;;;;;;19.25;3.20;;;;;;;;;;4992526;28;20035;-67
2022/10/04 01:51:24;;;;;;;12.93;3.15;;;;;;;;;;4994049;28;20206;-66
2022/10/04 01:53:56;;;;;;;12.25;3.17;;;;;;;;;;4993611;28;20541;-66
2022/10/04 01:56:41;;;;;;;24.33;3.55;;;;;;;;;;4989156;28;20046;-67
2022/10/04 01:59:12;;;;;;;13.63;3.10;;;;;;;;;;4992711;28;20653;-66
2022/10/04 02:01:43;;;;;;;10.52;3.10;;;;;;;;;;5008610;28;20683;-65
2022/10/04 02:04:16;;;;;;;13.82;4.60;;;;;;;;;;4991838;28;20061;-66
2022/10/04 02:06:42;;;;;;;;;;;;;;;;;;4991393;28;20141;-65
2022/10/04 02:09:12;;;;;;;13.20;3.60;;;;;;;;;;4993319;28;19917;-66
2022/10/04 02:11:40;;;;;;;16.50;3.17;;;;;;;;;;4992892;28;20046;-64
2022/10/04 02:14:14;;;;;;;15.27;3.80;;;;;;;;;;4991554;28;20585;-65
2022/10/04 02:16:43;;;;;;;28.15;4.10;;;;;;;;;;4990705;28;20056;-65
2022/10/04 02:19:10;;;;;;;15.50;4.07;;;;;;;;;;4993277;28;20053;-65
2022/10/04 02:21:37;;;;;;;8.95;2.95;;;;;;;;;;4993789;28;20335;-63
2022/10/04 02:24:05;;;;;;;16.63;3.42;;;;;;;;;;4992972;28;20445;-66
2022/10/04 02:26:32;;;;;;;17.17;3.20;;;;;;;;;;4993523;28;20041;-64
2022/10/04 02:28:58;;;;;;;7.85;2.80;;;;;;;;;;4986656;28;20034;-65
2022/10/04 02:34:11;;;;;;;8.13;2.97;;;;;;;;;;4980413;28;20046;-64
2022/10/04 02:36:39;;;;;;;10.07;2.70;;;;;;;;;;4976409;28;20381;-66
2022/10/04 02:39:16;;;;;;;8.13;3.33;;;;;;;;;;4973638;28;20038;-64
2022/10/04 02:41:44;;;;;;;9.68;2.97;;;;;;;;;;4984900;28;20543;-66
2022/10/04 02:44:16;;;;;;;9.32;2.83;;;;;;;;;;4980489;28;20061;-65
2022/10/04 02:47:03;;;;;;;6.45;2.75;;;;;;;;;;4978894;28;20101;-65
2022/10/04 02:49:36;;;;;;;13.15;3.10;;;;;;;;;;4986723;28;21997;-67
2022/10/04 02:52:15;;;;;;;7.93;3.50;;;;;;;;;;4979234;28;20063;-66
2022/10/04 02:55:00;;;;;;;10.77;3.15;;;;;;;;;;4978575;28;20045;-65
2022/10/04 02:57:27;;;;;;;9.70;2.67;;;;;;;;;;4977958;28;20092;-66
2022/10/04 03:00:01;;;;;;;13.48;3.50;;;;;;;;;;4980345;28;20509;-66
2022/10/04 03:02:29;;;;;;;9.60;2.63;;;;;;;;;;4979738;28;20054;-67
2022/10/04 03:04:59;;;;;;;9.45;2.80;;;;;;;;;;4978336;28;20042;-67
2022/10/04 03:07:26;;;;;;;13.52;3.13;;;;;;;;;;4984771;28;20145;-67
2022/10/04 03:09:53;;;;;;;14.07;3.20;;;;;;;;;;4977985;28;20093;-66
2022/10/04 03:12:21;;;;;;;9.00;2.55;;;;;;;;;;4970267;28;20042;-67
2022/10/04 03:14:47;;;;;;;14.23;2.72;;;;;;;;;;4978957;28;20138;-67
2022/10/04 03:17:16;;;;;;;10.63;2.38;;;;;;;;;;4979131;28;20502;-66
2022/10/04 03:19:43;;;;;;;11.40;2.67;;;;;;;;;;4976652;28;20061;-66
2022/10/04 03:22:11;;;;;;;7.40;2.50;;;;;;;;;;4977736;28;20042;-67
2022/10/04 03:24:45;;;;;;;10.60;2.47;;;;;;;;;;4977934;28;20038;-67
2022/10/04 03:27:32;;;;;;;12.73;2.78;;;;;;;;;;4977128;28;20069;-67
2022/10/04 03:30:00;;;;;;;13.63;3.13;;;;;;;;;;4978014;28;20042;-66
2022/10/04 03:32:29;;;;;;;10.18;2.60;;;;;;;;;;4977750;28;20038;-65
2022/10/04 03:35:00;;;;;;;10.35;2.60;;;;;;;;;;4979106;28;20113;-65
2022/10/04 03:37:28;;;;;;;6.50;2.40;;;;;;;;;;4977882;28;20054;-63
2022/10/04 03:39:55;;;;;;;11.93;2.80;;;;;;;;;;4978650;28;20653;-65
2022/10/04 03:42:24;;;;;;;10.63;2.50;;;;;;;;;;4977308;28;20056;-64
2022/10/04 03:44:53;;;;;;;9.25;2.17;;;;;;;;;;4977703;28;21776;-66
2022/10/04 03:47:24;;;;;;;5.97;2.35;;;;;;;;;;4975759;28;20368;-65
2022/10/04 03:49:51;;;;;;;8.73;2.50;;;;;;;;;;4977436;28;20057;-66
2022/10/04 03:52:22;;;;;;;7.35;2.47;;;;;;;;;;4977002;28;20046;-66
2022/10/04 03:54:51;;;;;;;9.93;2.30;;;;;;;;;;4976735;28;20046;-65
2022/10/04 03:57:18;;;;;;;12.07;2.88;;;;;;;;;;4977915;28;20196;-66
2022/10/04 03:59:45;;;;;;;12.35;2.55;;;;;;;;;;4971408;28;20459;-65
2022/10/04 04:02:18;;;;;;;9.57;2.10;;;;;;;;;;4979847;28;20038;-65
2022/10/04 04:04:55;;;;;;;6.28;2.58;;;;;;;;;;4987930;28;20069;-65
2022/10/04 04:07:26;;;;;;;90.15;7.47;;;;;;;;;;4978433;28;20046;-66
2022/10/04 04:10:00;;;;;;;17.17;2.95;;;;;;;;;;4978891;28;20046;-66
2022/10/04 04:12:35;;;;;;;77.00;7.97;;;;;;;;;;4985405;28;20137;-65
2022/10/04 04:15:03;;;;;;;44.20;4.68;;;;;;;;;;4979008;28;20133;-65
2022/10/04 04:17:29;;;;;;;17.38;2.80;;;;;;;;;;4984666;28;20069;-65
2022/10/04 04:19:58;;;;;;;19.45;3.20;;;;;;;;;;4978189;28;20054;-64
2022/10/04 04:22:30;;;;;;;21.58;3.03;;;;;;;;;;4978854;28;20045;-66
2022/10/04 04:25:08;;;;;;;14.95;2.88;;;;;;;;;;4972267;28;20503;-65
2022/10/04 04:27:36;;;;;;;15.30;2.88;;;;;;;;;;4970335;28;20076;-65
2022/10/04 04:30:05;;;;;;;12.80;3.20;;;;;;;;;;4978968;28;20132;-65
2022/10/04 04:32:40;;;;;;;14.30;3.13;;;;;;;;;;4976761;28;20034;-65
2022/10/04 04:35:20;;;;;;;11.15;2.90;;;;;;;;;;4977589;28;20043;-64
2022/10/04 04:38:01;;;;;;;14.98;3.38;;;;;;;;;;4986749;28;20505;-64
2022/10/04 04:40:28;;;;;;;8.95;2.55;;;;;;;;;;4977435;28;20137;-65
2022/10/04 04:42:57;;;;;;;11.20;3.20;;;;;;;;;;4979054;28;20129;-65
2022/10/04 04:45:28;;;;;;;10.80;3.08;;;;;;;;;;4978535;28;20106;-65
2022/10/04 04:47:58;;;;;;;13.50;3.70;;;;;;;;;;4978895;28;20038;-65
2022/10/04 04:50:51;;;;;;;9.02;3.20;;;;;;;;;;4978779;28;20137;-65
2022/10/04 04:53:21;;;;;;;13.40;5.38;;;;;;;;;;4980482;28;20080;-65
2022/10/04 04:55:56;;;;;;;11.85;3.50;;;;;;;;;;4981464;28;20452;-65
2022/10/04 04:58:34;;;;;;;8.75;2.95;;;;;;;;;;5011946;28;20038;-66
2022/10/04 05:01:21;;;;;;;15.32;3.38;;;;;;;;;;4984245;28;20082;-65
2022/10/04 05:04:07;;;;;;;7.95;3.05;;;;;;;;;;4993260;28;20049;-65
2022/10/04 05:06:35;;;;;;;11.85;3.70;;;;;;;;;;4986053;28;20038;-66
2022/10/04 05:09:02;;;;;;;9.73;3.75;;;;;;;;;;4981892;28;20053;-65
2022/10/04 05:11:34;;;;;;;7.43;3.00;;;;;;;;;;4978919;28;20518;-66
2022/10/04 05:14:04;;;;;;;9.93;3.38;;;;;;;;;;4983854;28;20038;-65
2022/10/04 05:16:51;;;;;;;12.45;3.50;;;;;;;;;;4977688;28;20054;-67
2022/10/04 05:19:29;;;;;;;12.35;3.50;;;;;;;;;;4992764;28;20081;-64
2022/10/04 05:21:57;;;;;;;9.27;3.55;;;;;;;;;;4980153;28;20078;-65
2022/10/04 05:24:29;;;;;;;14.55;3.78;;;;;;;;;;4973674;28;20594;-64
2022/10/04 05:27:01;;;;;;;7.57;2.88;;;;;;;;;;4977843;28;20619;-66
2022/10/04 05:29:38;;;;;;;10.63;3.38;;;;;;;;;;4978995;28;20038;-65
2022/10/04 05:32:23;;;;;;;8.55;3.35;;;;;;;;;;4979888;28;20047;-66
2022/10/04 05:34:51;;;;;;;8.63;3.10;;;;;;;;;;4978648;28;20093;-64
2022/10/04 05:37:23;;;;;;;9.15;3.08;;;;;;;;;;4977666;28;20840;-65
2022/10/04 05:40:04;;;;;;;7.90;3.60;;;;;;;;;;4978259;28;20046;-65
2022/10/04 05:42:51;;;;;;;11.13;3.30;;;;;;;;;;4976666;28;20338;-64
2022/10/04 05:45:19;;;;;;;9.90;3.30;;;;;;;;;;4978151;28;20294;-65
2022/10/04 05:47:50;;;;;;;15.07;3.13;;;;;;;;;;4981198;28;20113;-65
2022/10/04 05:50:19;;;;;;;21.25;3.80;;;;;;;;;;4982935;28;20097;-64
2022/10/04 05:52:46;;;;;;;10.55;3.17;;;;;;;;;;4977448;28;20034;-65
2022/10/04 05:55:16;;;;;;;6.97;3.13;;;;;;;;;;4977127;28;20046;-65
2022/10/04 05:58:01;;;;;;;13.38;3.80;;;;;;;;;;4977029;28;20054;-63
2022/10/04 06:00:42;;;;;;;10.93;3.42;;;;;;;;;;4977290;28;20055;-64
2022/10/04 06:03:26;;;;;;;6.90;2.80;;;;;;;;;;4978274;28;20043;-64
2022/10/04 06:06:11;;;;;;;8.35;3.20;;;;;;;;;;4978879;28;20494;-64
2022/10/04 06:08:43;;;;;;;11.20;3.20;;;;;;;;;;4981202;28;20038;-65
2022/10/04 06:11:17;;;;;;;10.35;3.50;;;;;;;;;;4982430;28;20030;-64
2022/10/04 06:13:50;;;;;;;11.75;3.95;;;;;;;;;;4989888;28;20038;-65
2022/10/04 06:16:35;;;;;;;13.02;3.90;;;;;;;;;;4981787;28;20054;-64
2022/10/04 06:19:04;;;;;;;9.70;3.30;;;;;;;;;;4979454;28;20038;-65
2022/10/04 06:21:40;;;;;;;11.10;3.53;;;;;;;;;;4979756;28;20042;-65
2022/10/04 06:24:06;;;;;;;10.57;3.80;;;;;;;;;;4979345;28;20050;-65
2022/10/04 06:26:42;;;;;;;15.75;3.58;;;;;;;;;;4980614;28;20084;-65
2022/10/04 06:29:14;;;;;;;9.02;3.67;;;;;;;;;;4981202;28;20085;-65
2022/10/04 06:31:58;;;;;;;12.45;4.00;;;;;;;;;;4979896;28;20030;-66
2022/10/04 06:34:37;;;;;;;10.93;4.57;;;;;;;;;;4981078;28;20035;-64
2022/10/04 06:37:04;;;;;;;11.60;4.00;;;;;;;;;;4981367;28;20049;-63
2022/10/04 06:39:34;;;;;;;13.00;4.28;;;;;;;;;;4987522;28;20049;-60
2022/10/04 06:42:13;;;;;;;11.15;4.45;;;;;;;;;;4981410;28;20498;-65
2022/10/04 06:44:39;;;;;;;6.82;3.70;;;;;;;;;;4979972;28;20601;-65
2022/10/04 06:47:08;;;;;;;7.95;4.07;;;;;;;;;;4980531;28;20526;-62
2022/10/04 06:49:38;;;;;;;13.77;4.10;;;;;;;;;;4993531;28;20053;-65
2022/10/04 06:52:13;;;;;;;9.85;4.20;;;;;;;;;;4979445;28;20044;-65
2022/10/04 06:54:40;;;;;;;12.07;3.65;;;;;;;;;;4977372;28;20061;-64
2022/10/04 06:57:30;;;;;;;9.60;3.90;;;;;;;;;;4986888;28;20038;-64
2022/10/04 07:00:09;;;;;;;11.45;4.00;;;;;;;;;;4980786;28;20407;-66
2022/10/04 07:02:54;;;;;;;9.48;4.03;;;;;;;;;;4980402;28;20046;-65
2022/10/04 07:05:30;;;;;;;13.13;4.10;;;;;;;;;;4976635;28;20204;-65
2022/10/04 07:08:06;;;;;;;10.45;4.20;;;;;;;;;;4979961;28;20047;-65
2022/10/04 07:10:36;;;;;;;11.50;4.78;;;;;;;;;;4985380;28;20049;-65
2022/10/04 07:13:09;;;;;;;12.18;5.18;;;;;;;;;;4980917;28;20053;-64
2022/10/04 07:15:58;;;;;;;10.80;4.95;;;;;;;;;;4978613;28;20038;-64
2022/10/04 07:18:27;;;;;;;16.13;4.45;;;;;;;;;;4974476;28;20046;-63
2022/10/04 07:21:00;;;;;;;15.57;4.70;;;;;;;;;;4979184;28;20535;-62
2022/10/04 07:23:30;;;;;;;12.73;4.38;;;;;;;;;;4978955;28;20479;-64
2022/10/04 07:26:03;;;;;;;11.88;4.03;;;;;;;;;;4979133;28;20105;-62
2022/10/04 07:31:17;;;;;;;12.95;4.28;;;;;;;;;;4988139;28;20084;-64
2022/10/04 07:33:51;;;;;;;11.38;4.13;;;;;;;;;;4986030;28;20034;-62
2022/10/04 07:36:23;;;;;;;10.32;3.65;;;;;;;;;;4979136;28;20050;-64
2022/10/04 07:39:01;;;;;;;13.77;4.50;;;;;;;;;;4980390;28;20078;-63
2022/10/04 07:41:34;;;;;;;12.85;4.68;;;;;;;;;;4979136;28;20415;-65
2022/10/04 07:44:14;;;;;;;13.02;4.10;;;;;;;;;;4978909;28;20077;-65
2022/10/04 07:47:05;;;;;;;12.48;4.28;;;;;;;;;;4971695;28;20089;-68
2022/10/04 07:49:37;;;;;;;9.45;4.00;;;;;;;;;;4978589;28;20042;-65
2022/10/04 07:52:22;;;;;;;13.15;3.97;;;;;;;;;;4986684;28;20053;-64
2022/10/04 07:54:54;;;;;;;14.82;4.63;;;;;;;;;;4977165;28;20046;-62
2022/10/04 07:57:39;;;;;;;13.40;4.07;;;;;;;;;;4977031;28;20043;-65
2022/10/04 08:00:22;;;;;;;9.70;3.92;;;;;;;;;;4978226;28;20141;-64
2022/10/04 08:02:49;;;;;;;;;;;;;;;;;;4978926;28;20057;-64
2022/10/04 08:05:34;;;;;;;12.50;4.00;;;;;;;;;;4978044;28;19972;-64
2022/10/04 08:08:13;;;;;;;12.80;3.90;;;;;;;;;;4978683;28;20533;-64
2022/10/04 08:10:55;;;;;;;14.27;4.00;;;;;;;;;;4978472;28;20050;-65
2022/10/04 08:13:21;;;;;;;15.15;4.05;;;;;;;;;;4977930;28;20105;-64
2022/10/04 08:15:50;;;;;;;12.35;3.97;;;;;;;;;;4978416;28;20399;-67
2022/10/04 08:18:22;;;;;;;18.33;3.83;;;;;;;;;;4978339;28;20057;-64
2022/10/04 08:20:58;;;;;;;14.20;3.90;;;;;;;;;;4993014;28;20077;-64
2022/10/04 08:23:43;;;;;;;9.95;3.30;;;;;;;;;;4978368;28;20047;-64
2022/10/04 08:26:22;;;;;;;7.55;3.20;;;;;;;;;;4979363;28;20030;-62
2022/10/04 08:32:09;;;;;;;8.23;3.00;;;;;;;;;;4976395;28;20267;-65
2022/10/04 08:34:54;;;;;;;6.35;2.20;;;;;;;;;;4977297;28;20042;-64
2022/10/04 08:37:31;;;;;;;9.10;3.35;;;;;;;;;;4978872;28;20046;-64
2022/10/04 08:39:58;;;;;;;7.43;2.90;;;;;;;;;;4979910;28;20081;-63
2022/10/04 08:42:27;;;;;;;11.77;3.20;;;;;;;;;;4976799;28;20046;-64
2022/10/04 08:45:13;;;;;;;10.20;3.15;;;;;;;;;;4977845;28;20038;-65
2022/10/04 08:47:53;;;;;;;7.38;3.20;;;;;;;;;;4976359;28;20454;-65
2022/10/04 08:50:36;;;;;;;10.68;3.00;;;;;;;;;;4977519;28;20042;-65
2022/10/04 08:53:21;;;;;;;10.27;2.72;;;;;;;;;;4991636;28;20042;-65
2022/10/04 08:56:06;;;;;;;11.23;3.00;;;;;;;;;;4975043;28;20054;-64
2022/10/04 08:58:55;;;;;;;9.38;2.88;;;;;;;;;;4973311;28;20039;-65
2022/10/04 09:01:40;;;;;;;8.73;3.17;;;;;;;;;;4977334;28;20061;-64
2022/10/04 09:04:35;;;;;;;11.50;3.38;;;;;;;;;;4977459;28;20042;-65
2022/10/04 09:07:20;;;;;;;9.77;3.25;;;;;;;;;;4991862;28;20145;-64
2022/10/04 09:09:50;;;;;;;6.43;3.30;;;;;;;;;;4983661;28;20124;-65
2022/10/04 09:12:35;;;;;;;5.22;2.95;;;;;;;;;;4983760;28;20092;-63
2022/10/04 09:15:02;;;;;;;12.25;3.22;;;;;;;;;;4976085;28;20499;-66
2022/10/04 09:17:28;;;;;;;9.85;3.65;;;;;;;;;;4976341;28;20045;-64
2022/10/04 09:19:58;;;;;;;13.50;4.18;;;;;;;;;;4975943;28;20056;-65
2022/10/04 09:22:43;;;;;;;11.82;4.07;;;;;;;;;;4966759;28;20070;-64
2022/10/04 09:25:09;;;;;;;8.80;3.28;;;;;;;;;;4976125;28;20064;-64
2022/10/04 09:27:44;;;;;;;6.72;3.42;;;;;;;;;;4976871;28;20042;-62
2022/10/04 09:30:11;;;;;;;7.70;3.28;;;;;;;;;;4977267;28;20059;-64
2022/10/04 09:33:12;;;;;;;10.30;3.42;;;;;;;;;;4976359;28;20070;-63
2022/10/04 09:35:48;;;;;;;7.95;3.40;;;;;;;;;;4971287;28;20050;-63
2022/10/04 09:38:41;;;;;;;10.13;3.20;;;;;;;;;;4978078;28;20050;-63
2022/10/04 09:41:14;;;;;;;14.05;3.17;;;;;;;;;;4970982;28;20463;-63
2022/10/04 09:43:41;;;;;;;10.68;3.95;;;;;;;;;;4983109;28;20055;-63
2022/10/04 09:46:31;;;;;;;9.55;3.65;;;;;;;;;;4983543;28;20061;-63
2022/10/04 09:49:09;;;;;;;10.30;3.53;;;;;;;;;;4983945;28;20042;-64
2022/10/04 09:51:54;;;;;;;11.45;3.63;;;;;;;;;;4982779;28;20070;-65
2022/10/04 09:54:23;;;;;;;8.40;3.60;;;;;;;;;;4982116;28;20069;-63
2022/10/04 09:56:50;;;;;;;10.95;3.72;;;;;;;;;;4996143;28;20418;-60
2022/10/04 09:59:20;;;;;;;8.52;3.83;;;;;;;;;;4985003;28;20034;-63
2022/10/04 10:02:06;;;;;;;12.27;4.10;;;;;;;;;;4983383;28;20042;-61
2022/10/04 10:04:47;;;;;;;11.20;3.17;;;;;;;;;;4982263;28;20050;-68
2022/10/04 10:07:20;;;;;;;10.77;3.58;;;;;;;;;;4983562;28;20122;-63
2022/10/04 10:16:08;;;;;;;12.10;3.72;;;;;;;;;;4985849;28;20877;-63
2022/10/04 10:18:54;;;;;;;9.05;3.90;;;;;;;;;;4936908;28;20063;-64
2022/10/04 10:21:25;;;;;;;9.88;3.83;;;;;;;;;;4972219;28;20499;-64
2022/10/04 10:24:02;;;;;;;11.90;4.03;;;;;;;;;;4983864;28;20046;-63
2022/10/04 10:26:46;;;;;;;12.55;3.67;;;;;;;;;;4981132;28;20046;-63
2022/10/04 10:29:19;;;;;;;11.93;4.03;;;;;;;;;;4977703;28;20046;-64
2022/10/04 10:32:03;;;;;;;13.27;3.50;;;;;;;;;;4997778;28;20100;-64
2022/10/04 10:34:51;;;;;;;9.43;3.22;;;;;;;;;;4982560;28;20050;-62
2022/10/04 10:37:39;;;;;;;10.27;3.78;;;;;;;;;;4982089;28;20407;-63
2022/10/04 10:40:29;;;;;;;11.80;4.03;;;;;;;;;;4996801;28;20055;-66
2022/10/04 10:42:59;;;;;;;8.88;3.78;;;;;;;;;;4973594;28;20046;-64
2022/10/04 10:45:26;;;;;;;10.57;3.85;;;;;;;;;;4982405;28;20395;-64
2022/10/04 10:48:08;;;;;;;8.35;3.70;;;;;;;;;;4982120;28;20034;-64
2022/10/04 10:50:58;;;;;;;10.10;3.55;;;;;;;;;;4982120;28;20049;-63
2022/10/04 10:53:44;;;;;;;8.30;3.95;;;;;;;;;;4978816;28;20046;-63
2022/10/04 10:56:34;;;;;;;8.77;3.72;;;;;;;;;;4981013;28;20161;-63
2022/10/04 10:59:19;;;;;;;6.93;3.35;;;;;;;;;;4970431;28;20956;-63
2022/10/04 11:01:55;;;;;;;8.05;3.40;;;;;;;;;;4978936;28;20061;-63
2022/10/04 11:04:24;;;;;;;8.57;3.60;;;;;;;;;;4981670;28;20192;-62
2022/10/04 11:06:53;;;;;;;5.40;3.20;;;;;;;;;;4981456;28;20026;-63
2022/10/04 11:09:28;;;;;;;9.60;4.13;;;;;;;;;;4979925;28;20049;-64
2022/10/04 11:12:06;;;;;;;8.98;3.78;;;;;;;;;;4981709;28;20102;-63
2022/10/04 11:14:50;;;;;;;8.40;4.00;;;;;;;;;;4982330;28;20050;-63
2022/10/04 11:17:38;;;;;;;7.07;3.78;;;;;;;;;;4980239;28;20164;-64
2022/10/04 11:20:05;;;;;;;7.43;3.53;;;;;;;;;;4978657;28;20050;-63
2022/10/04 11:22:43;;;;;;;7.22;3.70;;;;;;;;;;4979079;28;20097;-63
2022/10/04 11:25:45;;;;;;;9.90;4.32;;;;;;;;;;4978712;28;20034;-63
2022/10/04 11:28:18;;;;;;;10.15;4.00;;;;;;;;;;4966032;28;20038;-62
2022/10/04 11:31:03;;;;;;;9.75;4.10;;;;;;;;;;4964204;28;20153;-62
2022/10/04 11:33:42;;;;;;;10.02;4.03;;;;;;;;;;4966008;28;20053;-61
2022/10/04 11:36:27;;;;;;;7.50;3.70;;;;;;;;;;4972797;28;20121;-61
2022/10/04 11:38:56;;;;;;;7.78;3.85;;;;;;;;;;4979528;28;20046;-63
2022/10/04 11:41:29;;;;;;;7.70;4.05;;;;;;;;;;4978766;28;20046;-63
2022/10/04 11:44:13;;;;;;;8.63;2.97;;;;;;;;;;4995495;28;20053;-64
2022/10/04 11:46:50;;;;;;;10.20;4.00;;;;;;;;;;4979940;28;20050;-63
2022/10/04 11:49:24;;;;;;;10.52;4.20;;;;;;;;;;4979008;28;20519;-64
2022/10/04 11:52:08;;;;;;;10.30;3.72;;;;;;;;;;4978870;28;20102;-64
2022/10/04 11:54:38;;;;;;;10.25;3.80;;;;;;;;;;4978304;28;20038;-64
2022/10/04 11:57:19;;;;;;;9.10;3.20;;;;;;;;;;4992030;28;20376;-63
2022/10/04 11:59:46;;;;;;;9.57;3.80;;;;;;;;;;4976247;28;20068;-65
2022/10/04 12:02:15;;;;;;;10.40;3.63;;;;;;;;;;4975223;28;20157;-63
2022/10/04 12:05:03;;;;;;;8.73;3.42;;;;;;;;;;4970609;28;20069;-65
2022/10/04 12:07:49;;;;;;;8.50;3.47;;;;;;;;;;4976190;28;20455;-64
2022/10/04 12:10:24;;;;;;;10.30;3.33;;;;;;;;;;4971552;28;20050;-63
2022/10/04 12:13:03;;;;;;;10.13;3.75;;;;;;;;;;4976201;28;20069;-63
2022/10/04 12:15:41;;;;;;;8.73;3.22;;;;;;;;;;4976463;28;20050;-65
2022/10/04 12:18:27;;;;;;;12.27;3.35;;;;;;;;;;4977533;28;20050;-66
2022/10/04 12:21:12;;;;;;;9.70;3.80;;;;;;;;;;4974733;28;20054;-64
2022/10/04 12:23:52;;;;;;;7.97;3.28;;;;;;;;;;4975583;28;20073;-63
2022/10/04 12:26:21;;;;;;;14.02;4.00;;;;;;;;;;4976869;28;20060;-69
2022/10/04 12:28:48;;;;;;;12.57;3.38;;;;;;;;;;4990616;28;20069;-66
2022/10/04 12:31:21;;;;;;;9.88;3.65;;;;;;;;;;4978453;28;20526;-63
2022/10/04 12:33:55;;;;;;;13.25;3.90;;;;;;;;;;4977904;28;20042;-63
2022/10/04 12:36:22;;;;;;;;;;;;;;;;;;4978670;28;20034;-62
2022/10/04 12:39:07;;;;;;;9.98;3.42;;;;;;;;;;4979196;28;19933;-64
2022/10/04 12:41:53;;;;;;;9.57;3.80;;;;;;;;;;4978686;28;20069;-60
2022/10/04 12:44:39;;;;;;;15.35;3.70;;;;;;;;;;4980132;28;20507;-60
2022/10/04 12:47:15;;;;;;;13.25;3.78;;;;;;;;;;4984873;28;20083;-61
2022/10/04 12:49:48;;;;;;;10.30;3.53;;;;;;;;;;4987032;28;20030;-61
2022/10/04 12:52:26;;;;;;;8.38;3.35;;;;;;;;;;4978823;28;20069;-62
2022/10/04 12:54:57;;;;;;;9.48;3.80;;;;;;;;;;4972883;28;20427;-63
2022/10/04 12:57:26;;;;;;;12.68;3.83;;;;;;;;;;4978987;28;20082;-63
2022/10/04 13:00:02;;;;;;;22.25;4.00;;;;;;;;;;4979732;28;20046;-64
2022/10/04 13:02:47;;;;;;;19.02;3.53;;;;;;;;;;4978149;28;20043;-62
2022/10/04 13:08:36;;;;;;;17.13;3.55;;;;;;;;;;4981128;28;20225;-63
2022/10/04 13:11:06;;;;;;;11.68;3.88;;;;;;;;;;4981337;28;20026;-64
2022/10/04 13:13:51;;;;;;;13.63;3.70;;;;;;;;;;4979463;28;20046;-65
2022/10/04 13:16:31;;;;;;;8.23;3.05;;;;;;;;;;4983086;28;20050;-64
2022/10/04 13:19:06;;;;;;;9.15;3.42;;;;;;;;;;4978837;28;20046;-66
2022/10/04 13:21:38;;;;;;;10.32;3.80;;;;;;;;;;4975663;28;20047;-63
2022/10/04 13:24:17;;;;;;;13.83;3.33;;;;;;;;;;4976712;28;20066;-64
2022/10/04 13:27:03;;;;;;;11.73;3.75;;;;;;;;;;4975786;28;20042;-67
2022/10/04 13:29:38;;;;;;;8.38;3.80;;;;;;;;;;4981755;28;20041;-64
2022/10/04 13:32:18;;;;;;;19.10;4.60;;;;;;;;;;4990258;28;20051;-64
2022/10/04 13:34:45;;;;;;;14.98;4.13;;;;;;;;;;4971589;28;20470;-65
2022/10/04 13:37:14;;;;;;;18.63;3.75;;;;;;;;;;4977275;28;20042;-64
2022/10/04 13:39:47;;;;;;;9.27;3.53;;;;;;;;;;4990894;28;20054;-64
2022/10/04 13:42:23;;;;;;;17.17;3.92;;;;;;;;;;4977842;28;20054;-64
2022/10/04 13:44:58;;;;;;;11.98;3.80;;;;;;;;;;4975681;28;20065;-63
2022/10/04 13:47:45;;;;;;;13.73;3.70;;;;;;;;;;4975034;28;20161;-64
2022/10/04 13:50:16;;;;;;;12.35;3.80;;;;;;;;;;4975199;28;20128;-64
2022/10/04 13:58:29;;;;;;;11.27;2.80;;;;;;;;;;4979610;28;20049;-63
2022/10/04 14:01:05;;;;;;;6.10;2.85;;;;;;;;;;4989660;28;20073;-64
2022/10/04 14:03:38;;;;;;;9.95;2.92;;;;;;;;;;4977504;28;20098;-65
2022/10/04 14:06:20;;;;;;;8.30;3.33;;;;;;;;;;4973399;28;20063;-64
2022/10/04 14:08:56;;;;;;;12.88;2.92;;;;;;;;;;4976592;28;20122;-63
2022/10/04 14:11:25;;;;;;;5.82;2.50;;;;;;;;;;4975046;28;20085;-64
2022/10/04 14:13:52;;;;;;;11.60;2.85;;;;;;;;;;4992712;28;20967;-63
2022/10/04 14:16:19;;;;;;;6.90;2.70;;;;;;;;;;4976658;28;20089;-64
2022/10/04 14:19:02;;;;;;;5.95;2.75;;;;;;;;;;4976838;28;20084;-64
2022/10/04 14:21:48;;;;;;;10.73;2.97;;;;;;;;;;4976142;28;20127;-63
2022/10/04 14:24:14;;;;;;;8.20;2.58;;;;;;;;;;4985692;28;20383;-64
2022/10/04 14:26:50;;;;;;;6.13;2.40;;;;;;;;;;4978006;28;20042;-65
2022/10/04 14:29:23;;;;;;;8.80;3.13;;;;;;;;;;4980301;28;20038;-63
2022/10/04 14:31:50;;;;;;;9.85;3.10;;;;;;;;;;4980055;28;20073;-64
2022/10/04 14:34:26;;;;;;;6.13;2.85;;;;;;;;;;4981303;28;20038;-63
2022/10/04 14:37:11;;;;;;;11.40;3.33;;;;;;;;;;4979863;28;20037;-64
2022/10/04 14:40:16;;;;;;;8.50;2.70;;;;;;;;;;4979896;28;20045;-65
2022/10/04 14:42:57;;;;;;;20.45;3.95;;;;;;;;;;4987960;28;20689;-62
2022/10/04 14:45:53;;;;;;;7.63;3.00;;;;;;;;;;4987086;28;20046;-63
2022/10/04 14:48:20;;;;;;;6.65;2.90;;;;;;;;;;4914978;28;20544;-63
2022/10/04 14:50:49;;;;;;;12.20;3.33;;;;;;;;;;4980748;28;20041;-65
2022/10/04 14:53:31;;;;;;;6.47;2.90;;;;;;;;;;4980474;28;20034;-63
2022/10/04 14:56:05;;;;;;;10.25;2.95;;;;;;;;;;4984730;28;20042;-65
2022/10/04 14:58:39;;;;;;;10.80;3.45;;;;;;;;;;4980691;28;20070;-64
2022/10/04 15:01:22;;;;;;;8.07;3.20;;;;;;;;;;4979373;28;20081;-64
2022/10/04 15:04:01;;;;;;;11.98;3.22;;;;;;;;;;4977270;28;20081;-63
2022/10/04 15:06:41;;;;;;;17.30;3.78;;;;;;;;;;4978607;28;20042;-64
2022/10/04 15:09:08;;;;;;;11.65;3.65;;;;;;;;;;4979848;28;20049;-65
2022/10/04 15:11:44;;;;;;;16.45;3.25;;;;;;;;;;4977071;28;20041;-64
2022/10/04 15:14:25;;;;;;;22.83;3.67;;;;;;;;;;4987149;28;20046;-66
2022/10/04 15:16:57;;;;;;;13.50;3.08;;;;;;;;;;4972121;28;20054;-64
2022/10/04 15:19:37;;;;;;;13.10;3.53;;;;;;;;;;4976452;28;20097;-65
2022/10/04 15:22:06;;;;;;;10.82;3.17;;;;;;;;;;4979810;28;20050;-64
2022/10/04 15:24:41;;;;;;;13.65;3.80;;;;;;;;;;4976189;28;20037;-64
2022/10/04 15:27:26;;;;;;;9.10;3.10;;;;;;;;;;4978271;28;20037;-64
2022/10/04 15:30:10;;;;;;;7.78;3.03;;;;;;;;;;4979196;28;20376;-65
2022/10/04 15:32:39;;;;;;;12.27;3.13;;;;;;;;;;4979500;28;20046;-65
2022/10/04 15:35:19;;;;;;;9.73;3.25;;;;;;;;;;4979281;28;20102;-65
2022/10/04 15:37:58;;;;;;;9.70;3.10;;;;;;;;;;4980173;28;20042;-64
2022/10/04 15:40:42;;;;;;;11.55;2.97;;;;;;;;;;4977888;28;20054;-65
2022/10/04 15:43:08;;;;;;;;;;;;;;;;;;4980019;28;20082;-65
2022/10/04 15:45:58;;;;;;;9.93;2.80;;;;;;;;;;4979303;28;19932;-65
2022/10/04 15:48:29;;;;;;;8.55;2.33;;;;;;;;;;4966917;28;20110;-65